createdAt,value
2023-05-14T00:00:39.628Z,57.80
2023-05-14T00:03:06.544Z,57.80
2023-05-14T00:05:33.358Z,59.90
2023-05-14T00:07:59.862Z,55.73
2023-05-14T00:10:27.126Z,53.90
2023-05-14T00:12:53.699Z,57.20
2023-05-14T00:15:20.222Z,59.17
2023-05-14T00:17:46.796Z,54.63
2023-05-14T00:20:13.380Z,57.87
2023-05-14T00:22:40.216Z,57.90
2023-05-14T00:25:07.717Z,58.40
2023-05-14T00:27:34.840Z,59.37
2023-05-14T00:30:01.435Z,67.27
2023-05-14T00:32:28.055Z,65.50
2023-05-14T00:34:54.655Z,67.57
2023-05-14T00:37:21.209Z,60.53
2023-05-14T00:39:47.706Z,58.00
2023-05-14T00:42:14.251Z,58.33
2023-05-14T00:44:40.782Z,60.47
2023-05-14T00:47:07.884Z,59.10
2023-05-14T00:49:35.151Z,58.37
2023-05-14T00:52:01.693Z,59.53
2023-05-14T00:54:28.267Z,60.23
2023-05-14T00:56:54.885Z,57.90
2023-05-14T00:59:21.481Z,52.30
2023-05-14T01:01:47.985Z,55.17
2023-05-14T01:04:14.560Z,54.37
2023-05-14T01:06:51.971Z,57.67
2023-05-14T01:09:22.667Z,56.87
2023-05-14T01:12:08.081Z,59.40
2023-05-14T01:14:34.625Z,66.03
2023-05-14T01:17:02.635Z,64.80
2023-05-14T01:19:42.482Z,69.93
2023-05-14T01:22:09.467Z,63.63
2023-05-14T01:24:36.054Z,61.07
2023-05-14T01:27:21.864Z,63.07
2023-05-14T01:29:51.242Z,65.10
2023-05-14T01:32:18.651Z,68.30
2023-05-14T01:34:47.254Z,65.10
2023-05-14T01:37:14.227Z,70.13
2023-05-14T01:39:41.134Z,69.30
2023-05-14T01:42:07.841Z,69.87
2023-05-14T01:44:34.584Z,63.50
2023-05-14T01:47:01.457Z,61.93
2023-05-14T01:49:28.238Z,63.70
2023-05-14T01:51:55.059Z,63.63
2023-05-14T01:54:21.508Z,66.20
2023-05-14T01:56:47.963Z,67.00
2023-05-14T01:59:14.493Z,66.13
2023-05-14T02:01:41.274Z,55.60
2023-05-14T02:04:08.209Z,56.10
2023-05-14T02:06:34.791Z,60.87
2023-05-14T02:09:02.474Z,58.93
2023-05-14T02:11:28.969Z,61.50
2023-05-14T02:13:55.410Z,62.93
2023-05-14T02:16:21.953Z,65.17
2023-05-14T02:18:51.304Z,68.70
2023-05-14T02:21:17.900Z,64.87
2023-05-14T02:23:44.544Z,69.60
2023-05-14T02:26:11.104Z,64.50
2023-05-14T02:28:37.703Z,63.50
2023-05-14T02:31:04.266Z,96.07
2023-05-14T02:33:31.027Z,81.27
2023-05-14T02:35:57.619Z,90.13
2023-05-14T02:38:24.165Z,95.00
2023-05-14T02:40:50.804Z,101.70
2023-05-14T02:43:17.392Z,108.50
2023-05-14T02:45:43.949Z,133.43
2023-05-14T02:48:10.600Z,131.37
2023-05-14T02:50:37.207Z,150.43
2023-05-14T02:53:03.758Z,169.87
2023-05-14T02:55:30.348Z,138.97
2023-05-14T02:57:56.981Z,111.27
2023-05-14T03:00:24.103Z,104.67
2023-05-14T03:02:51.312Z,83.03
2023-05-14T03:05:18.534Z,76.07
2023-05-14T03:07:45.079Z,83.97
2023-05-14T03:10:12.192Z,79.33
2023-05-14T03:12:38.697Z,78.17
2023-05-14T03:15:05.436Z,76.27
2023-05-14T03:17:32.082Z,73.73
2023-05-14T03:19:58.562Z,65.10
2023-05-14T03:22:26.935Z,64.37
2023-05-14T03:24:53.749Z,62.77
2023-05-14T03:27:20.895Z,58.50
2023-05-14T03:29:47.442Z,57.83
2023-05-14T03:32:14.541Z,57.60
2023-05-14T03:34:41.168Z,59.63
2023-05-14T03:37:07.934Z,59.07
2023-05-14T03:39:34.857Z,61.53
2023-05-14T03:42:04.401Z,63.47
2023-05-14T03:44:30.927Z,59.80
2023-05-14T03:46:57.581Z,60.30
2023-05-14T03:49:24.297Z,63.17
2023-05-14T03:51:50.900Z,62.03
2023-05-14T03:54:17.539Z,55.67
2023-05-14T03:56:44.201Z,61.57
2023-05-14T03:59:10.714Z,65.63
2023-05-14T04:01:37.351Z,67.63
2023-05-14T04:04:04.024Z,65.30
2023-05-14T04:06:31.076Z,47.40
2023-05-14T04:08:57.713Z,52.90
2023-05-14T04:11:24.301Z,53.73
2023-05-14T04:13:50.895Z,55.87
2023-05-14T04:16:17.493Z,63.67
2023-05-14T04:18:44.008Z,59.20
2023-05-14T04:21:10.642Z,61.93
2023-05-14T04:23:37.617Z,62.57
2023-05-14T04:26:05.037Z,65.27
2023-05-14T04:28:31.658Z,62.63
2023-05-14T04:30:58.201Z,55.63
2023-05-14T04:33:24.836Z,60.80
2023-05-14T04:35:52.134Z,59.60
2023-05-14T04:38:18.822Z,59.63
2023-05-14T04:40:45.439Z,58.57
2023-05-14T04:43:12.237Z,64.03
2023-05-14T04:45:38.949Z,67.50
2023-05-14T04:48:07.665Z,66.97
2023-05-14T04:50:34.815Z,63.93
2023-05-14T04:53:01.443Z,60.40
2023-05-14T04:55:28.315Z,62.00
2023-05-14T04:57:54.897Z,62.33
2023-05-14T05:00:22.211Z,63.73
2023-05-14T05:02:49.109Z,59.73
2023-05-14T05:05:15.775Z,55.20
2023-05-14T05:07:42.313Z,55.43
2023-05-14T05:10:09.066Z,52.10
2023-05-14T05:12:35.797Z,52.30
2023-05-14T05:15:02.525Z,54.53
2023-05-14T05:17:29.895Z,53.43
2023-05-14T05:19:59.259Z,52.50
2023-05-14T05:22:26.085Z,53.83
2023-05-14T05:24:52.667Z,53.00
2023-05-14T05:27:21.022Z,53.97
2023-05-14T05:29:47.611Z,53.20
2023-05-14T05:32:14.173Z,52.83
2023-05-14T05:34:41.191Z,48.20
2023-05-14T05:37:09.288Z,49.87
2023-05-14T05:39:35.984Z,48.67
2023-05-14T05:42:02.884Z,47.47
2023-05-14T05:44:29.514Z,41.73
2023-05-14T05:46:59.230Z,39.90
2023-05-14T05:49:26.051Z,32.40
2023-05-14T05:51:52.615Z,32.33
2023-05-14T05:54:19.183Z,29.83
2023-05-14T05:56:45.765Z,28.17
2023-05-14T05:59:12.602Z,26.23
2023-05-14T06:01:40.779Z,23.33
2023-05-14T06:04:07.423Z,21.77
2023-05-14T06:06:34.017Z,21.83
2023-05-14T06:09:01.874Z,20.47
2023-05-14T06:11:28.539Z,19.20
2023-05-14T06:13:55.080Z,21.10
2023-05-14T06:16:21.680Z,21.03
2023-05-14T06:18:48.376Z,19.73
2023-05-14T06:21:14.991Z,20.07
2023-05-14T06:23:41.734Z,20.60
2023-05-14T06:26:08.278Z,20.20
2023-05-14T06:28:34.861Z,20.27
2023-05-14T06:31:01.461Z,19.73
2023-05-14T06:33:31.510Z,19.20
2023-05-14T06:36:04.086Z,19.30
2023-05-14T06:38:30.645Z,20.17
2023-05-14T06:40:57.192Z,18.93
2023-05-14T06:43:23.767Z,18.67
2023-05-14T06:45:51.086Z,21.27
2023-05-14T06:48:21.507Z,21.77
2023-05-14T06:50:48.772Z,20.80
2023-05-14T06:53:15.742Z,20.00
2023-05-14T06:55:42.603Z,22.13
2023-05-14T06:58:09.543Z,20.67
2023-05-14T07:00:36.133Z,20.90
2023-05-14T07:03:03.086Z,22.73
2023-05-14T07:05:29.640Z,20.60
2023-05-14T07:07:56.278Z,20.90
2023-05-14T07:10:23.320Z,21.83
2023-05-14T07:12:50.053Z,21.97
2023-05-14T07:15:16.702Z,21.73
2023-05-14T07:17:43.323Z,21.03
2023-05-14T07:20:10.163Z,21.07
2023-05-14T07:22:36.810Z,21.97
2023-05-14T07:25:03.550Z,21.80
2023-05-14T07:27:30.363Z,21.90
2023-05-14T07:29:57.093Z,24.10
2023-05-14T07:32:25.156Z,21.23
2023-05-14T07:34:51.944Z,23.53
2023-05-14T07:37:18.855Z,21.50
2023-05-14T07:39:45.652Z,22.30
2023-05-14T07:42:19.331Z,23.10
2023-05-14T07:44:52.755Z,25.90
2023-05-14T07:47:19.492Z,22.63
2023-05-14T07:49:46.144Z,23.80
2023-05-14T07:52:12.868Z,23.40
2023-05-14T07:54:39.505Z,24.17
2023-05-14T07:57:06.421Z,24.50
2023-05-14T07:59:33.141Z,25.60
2023-05-14T08:01:59.988Z,23.63
2023-05-14T08:04:26.906Z,23.63
2023-05-14T08:06:54.431Z,25.03
2023-05-14T08:09:21.083Z,25.70
2023-05-14T08:11:47.755Z,24.90
2023-05-14T08:14:14.532Z,26.93
2023-05-14T08:16:41.812Z,31.13
2023-05-14T08:19:08.875Z,32.13
2023-05-14T08:21:38.310Z,30.67
2023-05-14T08:24:05.293Z,33.07
2023-05-14T08:26:32.511Z,32.30
2023-05-14T08:28:59.288Z,33.77
2023-05-14T08:31:26.029Z,33.47
2023-05-14T08:33:52.778Z,34.93
2023-05-14T08:36:19.499Z,33.57
2023-05-14T08:38:46.107Z,34.07
2023-05-14T08:41:12.857Z,33.73
2023-05-14T08:43:42.614Z,33.13
2023-05-14T08:46:12.289Z,33.60
2023-05-14T08:48:40.720Z,31.00
2023-05-14T08:51:07.939Z,31.97
2023-05-14T08:53:35.098Z,31.97
2023-05-14T08:56:02.281Z,30.00
2023-05-14T08:58:28.963Z,30.50
2023-05-14T09:00:56.275Z,29.50
2023-05-14T09:03:23.924Z,29.20
2023-05-14T09:05:51.656Z,31.70
2023-05-14T09:08:19.277Z,32.40
2023-05-14T09:10:46.217Z,33.63
2023-05-14T09:13:13.049Z,32.43
2023-05-14T09:15:41.281Z,30.47
2023-05-14T09:18:08.146Z,33.37
2023-05-14T09:20:34.765Z,32.77
2023-05-14T09:23:02.044Z,33.90
2023-05-14T09:25:32.037Z,32.70
2023-05-14T09:27:59.026Z,32.90
2023-05-14T09:30:26.750Z,34.37
2023-05-14T09:32:54.491Z,32.07
2023-05-14T09:35:24.925Z,33.77
2023-05-14T09:37:52.812Z,34.17
2023-05-14T09:40:20.785Z,35.20
2023-05-14T09:42:51.019Z,34.30
2023-05-14T09:45:17.763Z,31.50
2023-05-14T09:47:45.358Z,33.53
2023-05-14T09:50:12.317Z,30.33
2023-05-14T09:52:39.115Z,34.27
2023-05-14T09:55:06.301Z,33.17
2023-05-14T09:57:33.635Z,31.70
2023-05-14T10:00:00.380Z,27.80
2023-05-14T10:02:31.176Z,26.90
2023-05-14T10:05:00.229Z,29.07
2023-05-14T10:07:29.099Z,28.90
2023-05-14T10:09:59.634Z,25.70
2023-05-14T10:12:28.026Z,27.83
2023-05-14T10:14:55.584Z,28.33
2023-05-14T10:17:22.731Z,31.23
2023-05-14T10:19:56.967Z,29.97
2023-05-14T10:22:25.268Z,28.30
2023-05-14T10:24:54.648Z,27.60
2023-05-14T10:27:21.940Z,27.90
2023-05-14T10:29:55.320Z,28.53
2023-05-14T10:32:23.629Z,29.40
2023-05-14T10:34:50.549Z,26.80
2023-05-14T10:37:18.335Z,28.30
2023-05-14T10:39:57.587Z,26.73
2023-05-14T10:42:24.201Z,25.90
2023-05-14T10:45:01.682Z,26.57
2023-05-14T10:47:28.983Z,26.20
2023-05-14T10:49:56.200Z,24.30
2023-05-14T10:52:23.146Z,22.60
2023-05-14T10:54:56.804Z,23.57
2023-05-14T10:57:24.275Z,25.47
2023-05-14T10:59:55.147Z,24.13
2023-05-14T11:02:23.043Z,23.37
2023-05-14T11:04:57.726Z,22.63
2023-05-14T11:07:27.206Z,23.33
2023-05-14T11:09:54.172Z,23.70
2023-05-14T11:12:21.219Z,22.97
2023-05-14T11:14:47.956Z,23.83
2023-05-14T11:17:15.436Z,24.97
2023-05-14T11:19:43.161Z,21.30
2023-05-14T11:22:09.807Z,24.00
2023-05-14T11:24:36.448Z,24.57
2023-05-14T11:27:02.983Z,25.20
2023-05-14T11:29:29.582Z,21.50
2023-05-14T11:31:56.169Z,23.13
2023-05-14T11:34:22.805Z,25.70
2023-05-14T11:36:49.408Z,22.30
2023-05-14T11:39:19.265Z,20.70
2023-05-14T11:41:46.169Z,22.23
2023-05-14T11:44:12.768Z,23.53
2023-05-14T11:46:39.681Z,24.07
2023-05-14T11:49:06.944Z,22.07
2023-05-14T11:51:33.484Z,23.17
2023-05-14T11:54:00.140Z,24.27
2023-05-14T11:56:26.700Z,21.03
2023-05-14T11:58:57.824Z,23.40
2023-05-14T12:01:24.533Z,19.80
2023-05-14T12:03:51.614Z,19.23
2023-05-14T12:06:18.349Z,18.40
2023-05-14T12:08:47.657Z,17.70
2023-05-14T12:11:14.316Z,17.80
2023-05-14T12:13:41.000Z,19.20
2023-05-14T12:16:07.768Z,19.40
2023-05-14T12:18:34.754Z,19.83
2023-05-14T12:21:05.217Z,19.90
2023-05-14T12:23:32.317Z,12.43
2023-05-14T12:26:03.569Z,17.00
2023-05-14T12:28:30.321Z,16.40
2023-05-14T12:30:57.641Z,15.70
2023-05-14T12:33:26.399Z,16.83
2023-05-14T12:36:07.408Z,16.13
2023-05-14T12:38:41.339Z,21.20
2023-05-14T12:41:07.964Z,20.63
2023-05-14T12:43:34.747Z,18.90
2023-05-14T12:46:01.429Z,17.80
2023-05-14T12:48:28.364Z,15.30
2023-05-14T12:50:54.999Z,14.27
2023-05-14T12:53:21.588Z,8.73
2023-05-14T12:55:49.670Z,8.50
2023-05-14T12:58:16.527Z,9.17
2023-05-14T13:00:43.104Z,8.93
2023-05-14T13:03:09.736Z,8.67
2023-05-14T13:05:36.462Z,8.70
2023-05-14T13:08:03.984Z,8.50
2023-05-14T13:10:30.659Z,9.27
2023-05-14T13:12:58.122Z,5.67
2023-05-14T13:15:24.965Z,5.50
2023-05-14T13:17:51.839Z,5.73
2023-05-14T13:20:18.460Z,6.03
2023-05-14T13:22:45.056Z,5.30
2023-05-14T13:25:11.636Z,4.97
2023-05-14T13:27:38.184Z,5.40
2023-05-14T13:30:04.999Z,5.57
2023-05-14T13:32:31.666Z,5.47
2023-05-14T13:34:58.374Z,4.97
2023-05-14T13:37:25.686Z,5.80
2023-05-14T13:39:52.368Z,5.23
2023-05-14T13:42:19.004Z,4.90
2023-05-14T13:44:45.869Z,5.50
2023-05-14T13:47:12.514Z,4.43
2023-05-14T13:49:40.343Z,5.00
2023-05-14T13:52:06.969Z,4.80
2023-05-14T13:54:33.544Z,4.97
2023-05-14T13:57:00.135Z,4.33
2023-05-14T13:59:27.796Z,4.03
2023-05-14T14:01:54.416Z,4.20
2023-05-14T14:04:22.154Z,4.60
2023-05-14T14:06:48.937Z,4.43
2023-05-14T14:09:15.867Z,4.90
2023-05-14T14:11:42.464Z,3.87
2023-05-14T14:14:09.172Z,4.13
2023-05-14T14:16:36.223Z,3.50
2023-05-14T14:19:03.073Z,3.80
2023-05-14T14:21:29.714Z,4.50
2023-05-14T14:23:56.316Z,15.40
2023-05-14T14:26:22.968Z,16.50
2023-05-14T14:28:49.513Z,16.27
2023-05-14T14:31:16.539Z,16.90
2023-05-14T14:33:43.183Z,14.70
2023-05-14T14:36:09.731Z,15.07
2023-05-14T14:38:36.361Z,15.67
2023-05-14T14:41:03.242Z,13.67
2023-05-14T14:43:29.908Z,12.53
2023-05-14T14:45:56.449Z,13.57
2023-05-14T14:48:25.019Z,15.30
2023-05-14T14:50:52.089Z,15.90
2023-05-14T14:53:19.352Z,15.97
2023-05-14T14:55:46.246Z,15.30
2023-05-14T14:58:12.840Z,14.13
2023-05-14T15:00:40.269Z,14.20
2023-05-14T15:03:07.179Z,15.10
2023-05-14T15:05:33.862Z,13.07
2023-05-14T15:08:00.477Z,14.07
2023-05-14T15:10:31.028Z,12.53
2023-05-14T15:12:58.320Z,12.43
2023-05-14T15:15:25.559Z,14.10
2023-05-14T15:17:52.375Z,9.97
2023-05-14T15:20:19.063Z,9.60
2023-05-14T15:22:45.630Z,10.30
2023-05-14T15:25:12.186Z,10.80
2023-05-14T15:27:38.714Z,9.70
2023-05-14T15:30:06.292Z,10.17
2023-05-14T15:32:33.773Z,7.70
2023-05-14T15:35:01.347Z,9.30
2023-05-14T15:37:27.994Z,9.43
2023-05-14T15:39:54.527Z,11.30
2023-05-14T15:42:21.189Z,13.07
2023-05-14T15:44:47.785Z,12.80
2023-05-14T15:47:14.333Z,11.90
2023-05-14T15:49:40.934Z,12.70
2023-05-14T15:52:07.571Z,12.40
2023-05-14T15:54:34.215Z,11.47
2023-05-14T15:57:01.275Z,6.70
2023-05-14T15:59:27.867Z,4.80
2023-05-14T16:01:54.514Z,4.60
2023-05-14T16:04:21.159Z,4.50
2023-05-14T16:06:47.828Z,4.93
2023-05-14T16:09:14.794Z,4.77
2023-05-14T16:11:41.390Z,5.63
2023-05-14T16:14:07.996Z,4.27
2023-05-14T16:16:34.653Z,4.30
2023-05-14T16:19:01.322Z,4.43
2023-05-14T16:21:27.916Z,4.97
2023-05-14T16:23:54.497Z,4.80
2023-05-14T16:26:22.342Z,5.43
2023-05-14T16:28:49.078Z,4.43
2023-05-14T16:31:15.725Z,4.90
2023-05-14T16:33:43.373Z,5.40
2023-05-14T16:36:10.056Z,4.50
2023-05-14T16:38:41.435Z,4.53
2023-05-14T16:41:14.872Z,4.60
2023-05-14T16:43:41.441Z,5.10
2023-05-14T16:46:09.169Z,4.97
2023-05-14T16:48:36.027Z,4.57
2023-05-14T16:51:02.672Z,5.40
2023-05-14T16:53:29.598Z,4.47
2023-05-14T16:55:56.125Z,4.90
2023-05-14T16:58:22.897Z,4.70
2023-05-14T17:00:49.508Z,5.13
2023-05-14T17:03:16.151Z,4.47
2023-05-14T17:05:44.131Z,4.67
2023-05-14T17:08:10.788Z,4.33
2023-05-14T17:10:37.379Z,4.43
2023-05-14T17:13:05.710Z,4.03
2023-05-14T17:15:32.396Z,5.20
2023-05-14T17:17:59.110Z,4.87
2023-05-14T17:20:26.079Z,4.67
2023-05-14T17:22:52.548Z,4.53
2023-05-14T17:25:19.488Z,4.90
2023-05-14T17:27:46.062Z,4.70
2023-05-14T17:30:12.738Z,5.07
2023-05-14T17:32:39.543Z,4.97
2023-05-14T17:35:06.815Z,5.00
2023-05-14T17:37:33.816Z,4.13
2023-05-14T17:40:00.484Z,5.30
2023-05-14T17:42:27.145Z,5.67
2023-05-14T17:44:53.850Z,5.50
2023-05-14T17:47:20.862Z,5.43
2023-05-14T17:49:48.580Z,4.30
2023-05-14T17:52:15.204Z,5.50
2023-05-14T17:54:41.894Z,5.60
2023-05-14T17:57:08.490Z,5.40
2023-05-14T17:59:35.240Z,6.20
2023-05-14T18:02:01.973Z,5.27
2023-05-14T18:04:28.680Z,6.80
2023-05-14T18:06:55.309Z,5.30
2023-05-14T18:09:22.038Z,5.60
2023-05-14T18:11:48.673Z,6.93
2023-05-14T18:14:15.294Z,5.50
2023-05-14T18:16:42.065Z,6.30
2023-05-14T18:19:08.766Z,4.80
2023-05-14T18:21:35.984Z,5.97
2023-05-14T18:24:02.603Z,5.27
2023-05-14T18:26:29.221Z,6.73
2023-05-14T18:28:57.288Z,6.70
2023-05-14T18:31:23.945Z,6.90
2023-05-14T18:33:50.546Z,5.90
2023-05-14T18:36:17.905Z,6.60
2023-05-14T18:38:44.575Z,5.93
2023-05-14T18:41:11.180Z,6.50
2023-05-14T18:43:37.957Z,6.50
2023-05-14T18:46:04.613Z,6.13
2023-05-14T18:48:31.662Z,5.80
2023-05-14T18:50:58.405Z,6.93
2023-05-14T18:53:25.638Z,6.50
2023-05-14T18:55:52.238Z,6.10
2023-05-14T18:58:18.759Z,6.27
2023-05-14T19:00:45.497Z,6.10
2023-05-14T19:03:12.265Z,6.90
2023-05-14T19:05:38.987Z,6.40
2023-05-14T19:08:05.881Z,6.50
2023-05-14T19:10:32.523Z,6.80
2023-05-14T19:12:59.186Z,6.80
2023-05-14T19:15:26.420Z,6.67
2023-05-14T19:17:54.170Z,6.60
2023-05-14T19:20:21.068Z,6.90
2023-05-14T19:22:48.792Z,6.50
2023-05-14T19:25:15.395Z,7.53
2023-05-14T19:27:42.076Z,6.90
2023-05-14T19:30:09.103Z,6.27
2023-05-14T19:32:37.598Z,5.57
2023-05-14T19:35:05.686Z,7.33
2023-05-14T19:37:32.759Z,8.17
2023-05-14T19:39:59.371Z,7.33
2023-05-14T19:42:26.029Z,7.40
2023-05-14T19:44:52.736Z,7.50
2023-05-14T19:47:19.390Z,7.07
2023-05-14T19:49:46.014Z,8.63
2023-05-14T19:52:12.580Z,7.90
2023-05-14T19:54:39.169Z,7.53
2023-05-14T19:57:06.068Z,8.33
2023-05-14T19:59:32.817Z,10.20
2023-05-14T20:01:59.608Z,11.07
2023-05-14T20:04:26.416Z,8.60
2023-05-14T20:06:53.497Z,9.33
2023-05-14T20:09:20.269Z,9.27
2023-05-14T20:11:47.052Z,9.20
2023-05-14T20:14:14.102Z,9.80
2023-05-14T20:16:41.838Z,9.03
2023-05-14T20:19:08.530Z,9.27
2023-05-14T20:21:35.433Z,9.20
2023-05-14T20:24:03.501Z,8.73
2023-05-14T20:26:30.486Z,9.30
2023-05-14T20:28:57.248Z,10.50
2023-05-14T20:31:24.001Z,10.70
2023-05-14T20:33:50.690Z,9.43
2023-05-14T20:36:17.513Z,10.50
2023-05-14T20:38:44.071Z,9.80
2023-05-14T20:41:10.794Z,8.50
2023-05-14T20:44:02.853Z,10.20
2023-05-14T20:46:29.729Z,9.70
2023-05-14T20:48:56.967Z,9.90
2023-05-14T20:51:23.811Z,10.03
2023-05-14T20:53:50.406Z,10.30
2023-05-14T20:56:17.104Z,11.73
2023-05-14T20:58:43.662Z,10.13
2023-05-14T21:01:10.292Z,10.50
2023-05-14T21:03:37.111Z,9.63
2023-05-14T21:06:03.929Z,10.10
2023-05-14T21:08:32.884Z,11.17
2023-05-14T21:10:59.687Z,10.70
2023-05-14T21:13:26.225Z,11.33
2023-05-14T21:15:52.895Z,12.10
2023-05-14T21:18:19.492Z,12.20
2023-05-14T21:20:46.216Z,11.20
2023-05-14T21:23:12.913Z,13.10
2023-05-14T21:25:39.524Z,14.00
2023-05-14T21:28:06.083Z,14.23
2023-05-14T21:30:32.619Z,15.20
2023-05-14T21:32:59.270Z,13.50
2023-05-14T21:35:26.208Z,14.17
2023-05-14T21:37:53.263Z,16.60
2023-05-14T21:40:19.758Z,16.93
2023-05-14T21:42:47.493Z,15.40
2023-05-14T21:45:14.272Z,16.97
2023-05-14T21:47:41.335Z,15.47
2023-05-14T21:50:08.196Z,16.33
2023-05-14T21:52:34.823Z,17.13
2023-05-14T21:55:01.586Z,17.13
2023-05-14T21:57:29.211Z,17.23
2023-05-14T21:59:58.022Z,18.50
2023-05-14T22:02:24.672Z,16.87
2023-05-14T22:04:51.276Z,18.23
2023-05-14T22:07:17.934Z,17.27
2023-05-14T22:09:44.578Z,18.17
2023-05-14T22:12:11.228Z,18.27
2023-05-14T22:14:38.040Z,17.70
2023-05-14T22:17:04.719Z,16.70
2023-05-14T22:19:31.388Z,19.60
2023-05-14T22:21:58.801Z,19.27
2023-05-14T22:24:25.806Z,18.60
2023-05-14T22:26:52.317Z,19.93
2023-05-14T22:29:19.033Z,18.90
2023-05-14T22:31:45.703Z,19.57
2023-05-14T22:34:12.247Z,20.50
2023-05-14T22:36:38.861Z,20.87
2023-05-14T22:39:05.422Z,18.53
2023-05-14T22:41:31.896Z,21.87
2023-05-14T22:43:58.392Z,29.40
2023-05-14T22:46:24.984Z,30.30
2023-05-14T22:48:51.645Z,36.17
2023-05-14T22:51:18.210Z,34.37
2023-05-14T22:53:45.441Z,32.37
2023-05-14T22:56:11.944Z,30.67
2023-05-14T22:58:38.443Z,38.17
2023-05-14T23:01:05.067Z,43.83
2023-05-14T23:03:31.618Z,42.40
2023-05-14T23:05:58.227Z,47.93
2023-05-14T23:08:24.974Z,60.17
2023-05-14T23:10:51.466Z,67.70
2023-05-14T23:13:19.024Z,57.33
2023-05-14T23:15:45.582Z,42.90
2023-05-14T23:18:12.446Z,37.63
2023-05-14T23:20:39.040Z,38.93
2023-05-14T23:23:06.431Z,34.77
2023-05-14T23:25:32.954Z,36.27
2023-05-14T23:27:59.570Z,35.87
2023-05-14T23:30:26.122Z,37.07
2023-05-14T23:32:52.602Z,37.57
2023-05-14T23:35:19.128Z,37.30
2023-05-14T23:37:47.231Z,39.50
2023-05-14T23:40:14.227Z,39.00
2023-05-14T23:42:40.858Z,41.47
2023-05-14T23:45:07.649Z,42.87
2023-05-14T23:47:34.363Z,46.80
2023-05-14T23:50:00.955Z,44.83
2023-05-14T23:52:27.471Z,48.37
2023-05-14T23:54:54.099Z,50.67
2023-05-14T23:57:20.778Z,49.80
2023-05-14T23:59:47.319Z,48.03
